createdAt,value
2023-04-22T00:01:30.182Z,62.94
2023-04-22T00:03:56.799Z,63.70
2023-04-22T00:06:23.788Z,62.96
2023-04-22T00:08:50.295Z,61.91
2023-04-22T00:11:16.722Z,61.83
2023-04-22T00:13:43.183Z,62.23
2023-04-22T00:16:09.671Z,60.31
2023-04-22T00:18:36.234Z,61.69
2023-04-22T00:21:03.816Z,61.69
2023-04-22T00:23:30.474Z,61.38
2023-04-22T00:25:57.039Z,58.83
2023-04-22T00:28:23.466Z,61.08
2023-04-22T00:30:49.865Z,61.13
2023-04-22T00:33:16.273Z,59.92
2023-04-22T00:35:42.681Z,59.58
2023-04-22T00:38:09.170Z,58.71
2023-04-22T00:40:35.649Z,58.00
2023-04-22T00:43:03.001Z,59.97
2023-04-22T00:45:30.510Z,60.24
2023-04-22T00:47:57.664Z,59.14
2023-04-22T00:50:24.273Z,59.20
2023-04-22T00:52:50.741Z,58.25
2023-04-22T00:55:17.289Z,58.37
2023-04-22T00:57:44.472Z,58.24
2023-04-22T01:00:11.976Z,58.25
2023-04-22T01:02:38.937Z,58.89
2023-04-22T01:05:06.327Z,57.43
2023-04-22T01:07:32.804Z,58.23
2023-04-22T01:09:59.392Z,57.46
2023-04-22T01:12:25.875Z,57.26
2023-04-22T01:14:52.315Z,57.02
2023-04-22T01:17:19.367Z,56.63
2023-04-22T01:19:47.430Z,56.80
2023-04-22T01:22:14.845Z,56.05
2023-04-22T01:24:41.531Z,57.31
2023-04-22T01:27:08.756Z,56.68
2023-04-22T01:29:39.844Z,56.55
2023-04-22T01:32:06.934Z,56.77
2023-04-22T01:34:33.772Z,56.59
2023-04-22T01:37:00.334Z,57.64
2023-04-22T01:39:27.128Z,57.76
2023-04-22T01:41:53.775Z,56.99
2023-04-22T01:44:20.203Z,55.52
2023-04-22T01:46:46.600Z,56.42
2023-04-22T01:49:13.084Z,56.36
2023-04-22T01:51:39.617Z,56.34
2023-04-22T01:54:06.077Z,56.91
2023-04-22T01:56:32.669Z,56.23
2023-04-22T01:58:59.099Z,56.77
2023-04-22T02:01:25.628Z,55.64
2023-04-22T02:03:52.210Z,55.88
2023-04-22T02:06:18.677Z,56.13
2023-04-22T02:08:45.135Z,55.54
2023-04-22T02:11:11.606Z,55.74
2023-04-22T02:13:40.171Z,57.78
2023-04-22T02:16:07.500Z,57.16
2023-04-22T02:18:34.076Z,56.58
2023-04-22T02:21:00.600Z,57.18
2023-04-22T02:23:27.579Z,56.05
2023-04-22T02:25:55.804Z,55.86
2023-04-22T02:28:22.582Z,56.29
2023-04-22T02:30:49.203Z,55.48
2023-04-22T02:33:15.648Z,55.33
2023-04-22T02:35:42.091Z,55.43
2023-04-22T02:38:08.522Z,56.45
2023-04-22T02:40:35.073Z,55.60
2023-04-22T02:43:01.724Z,55.26
2023-04-22T02:45:28.428Z,55.49
2023-04-22T02:47:54.967Z,54.53
2023-04-22T02:50:21.685Z,54.45
2023-04-22T02:52:48.121Z,54.86
2023-04-22T02:55:14.597Z,56.76
2023-04-22T02:57:41.067Z,56.32
2023-04-22T03:00:08.460Z,56.41
2023-04-22T03:02:35.018Z,55.29
2023-04-22T03:05:01.872Z,56.90
2023-04-22T03:07:28.280Z,56.70
2023-04-22T03:09:55.916Z,56.38
2023-04-22T03:12:22.462Z,56.75
2023-04-22T03:14:48.869Z,57.20
2023-04-22T03:17:15.288Z,56.65
2023-04-22T03:19:41.970Z,56.81
2023-04-22T03:22:08.559Z,56.86
2023-04-22T03:24:35.008Z,56.99
2023-04-22T03:27:02.054Z,55.71
2023-04-22T03:29:28.476Z,56.38
2023-04-22T03:31:54.987Z,57.47
2023-04-22T03:34:21.944Z,56.52
2023-04-22T03:36:48.368Z,56.36
2023-04-22T03:39:14.981Z,56.46
2023-04-22T03:41:41.398Z,58.39
2023-04-22T03:44:07.826Z,58.01
2023-04-22T03:46:34.389Z,56.73
2023-04-22T03:49:01.191Z,57.01
2023-04-22T03:51:27.723Z,57.97
2023-04-22T03:53:54.155Z,56.81
2023-04-22T03:56:21.090Z,57.34
2023-04-22T03:58:47.475Z,57.69
2023-04-22T04:01:13.919Z,57.28
2023-04-22T04:03:40.920Z,58.25
2023-04-22T04:06:07.703Z,58.98
2023-04-22T04:08:34.108Z,57.89
2023-04-22T04:11:00.556Z,57.87
2023-04-22T04:13:31.986Z,57.51
2023-04-22T04:16:00.289Z,58.20
2023-04-22T04:18:29.432Z,56.94
2023-04-22T04:20:56.419Z,59.17
2023-04-22T04:23:23.280Z,58.34
2023-04-22T04:25:49.749Z,58.25
2023-04-22T04:28:17.688Z,58.43
2023-04-22T04:30:44.287Z,57.70
2023-04-22T04:33:12.280Z,58.74
2023-04-22T04:35:39.215Z,57.64
2023-04-22T04:38:06.189Z,58.24
2023-04-22T04:40:33.622Z,57.42
2023-04-22T04:43:03.293Z,57.98
2023-04-22T04:45:30.102Z,58.10
2023-04-22T04:47:56.777Z,59.13
2023-04-22T04:50:23.425Z,58.75
2023-04-22T04:52:49.910Z,58.49
2023-04-22T04:55:17.242Z,58.31
2023-04-22T04:57:46.663Z,57.21
2023-04-22T05:00:16.319Z,57.76
2023-04-22T05:02:42.938Z,58.60
2023-04-22T05:05:11.140Z,57.43
2023-04-22T05:07:37.687Z,57.76
2023-04-22T05:10:04.538Z,57.19
2023-04-22T05:12:30.999Z,56.10
2023-04-22T05:14:57.457Z,57.79
2023-04-22T05:17:23.965Z,56.65
2023-04-22T05:19:50.459Z,56.77
2023-04-22T05:22:17.970Z,57.51
2023-04-22T05:24:44.415Z,57.23
2023-04-22T05:27:11.186Z,56.55
2023-04-22T05:29:37.778Z,56.78
2023-04-22T05:32:04.729Z,56.64
2023-04-22T05:34:31.558Z,56.51
2023-04-22T05:36:58.024Z,57.78
2023-04-22T05:39:24.539Z,57.42
2023-04-22T05:41:51.016Z,56.37
2023-04-22T05:44:17.612Z,56.29
2023-04-22T05:46:44.129Z,56.73
2023-04-22T05:49:10.550Z,56.28
2023-04-22T05:51:37.045Z,56.72
2023-04-22T05:54:03.654Z,56.20
2023-04-22T05:56:30.238Z,55.89
2023-04-22T05:58:56.724Z,55.93
2023-04-22T06:01:24.753Z,55.59
2023-04-22T06:03:51.446Z,56.43
2023-04-22T06:06:18.405Z,56.21
2023-04-22T06:08:44.828Z,56.09
2023-04-22T06:11:11.225Z,56.55
2023-04-22T06:13:37.621Z,56.16
2023-04-22T06:16:05.244Z,56.02
2023-04-22T06:18:32.628Z,55.15
2023-04-22T06:20:59.060Z,55.53
2023-04-22T06:23:25.662Z,55.55
2023-04-22T06:25:52.192Z,56.01
2023-04-22T06:28:18.916Z,54.86
2023-04-22T06:30:45.439Z,55.34
2023-04-22T06:33:12.322Z,54.59
2023-04-22T06:35:38.818Z,55.12
2023-04-22T06:38:05.327Z,54.16
2023-04-22T06:40:31.715Z,54.75
2023-04-22T06:42:58.284Z,55.60
2023-04-22T06:45:24.723Z,54.10
2023-04-22T06:47:54.051Z,54.58
2023-04-22T06:50:20.995Z,53.92
2023-04-22T06:52:47.723Z,53.26
2023-04-22T06:55:14.187Z,53.71
2023-04-22T06:57:40.681Z,53.45
2023-04-22T07:00:10.961Z,51.75
2023-04-22T07:02:37.551Z,52.42
2023-04-22T07:05:04.339Z,51.17
2023-04-22T07:07:30.800Z,50.97
2023-04-22T07:09:57.202Z,53.53
2023-04-22T07:12:25.616Z,52.24
2023-04-22T07:14:52.036Z,51.59
2023-04-22T07:17:21.987Z,50.06
2023-04-22T07:19:49.281Z,50.49
2023-04-22T07:22:15.721Z,49.87
2023-04-22T07:24:42.200Z,48.64
2023-04-22T07:27:08.643Z,49.12
2023-04-22T07:29:35.215Z,49.56
2023-04-22T07:32:01.685Z,48.40
2023-04-22T07:34:28.225Z,48.31
2023-04-22T07:36:54.678Z,48.91
2023-04-22T07:39:22.229Z,47.91
2023-04-22T07:41:48.661Z,47.78
2023-04-22T07:44:18.374Z,48.62
2023-04-22T07:46:44.844Z,48.58
2023-04-22T07:49:13.848Z,49.39
2023-04-22T07:51:40.980Z,49.62
2023-04-22T07:54:07.574Z,48.91
2023-04-22T07:56:34.504Z,49.46
2023-04-22T07:59:00.947Z,48.78
2023-04-22T08:01:27.376Z,49.64
2023-04-22T08:03:54.059Z,49.39
2023-04-22T08:06:20.726Z,49.20
2023-04-22T08:08:47.213Z,49.17
2023-04-22T08:11:13.706Z,48.97
2023-04-22T08:13:40.119Z,49.79
2023-04-22T08:16:07.368Z,49.88
2023-04-22T08:18:33.954Z,48.76
2023-04-22T08:21:00.530Z,49.13
2023-04-22T08:23:27.000Z,51.59
2023-04-22T08:25:53.580Z,50.60
2023-04-22T08:28:20.028Z,49.33
2023-04-22T08:30:46.508Z,49.38
2023-04-22T08:33:13.012Z,47.23
2023-04-22T08:35:40.756Z,48.94
2023-04-22T08:38:07.183Z,50.00
2023-04-22T08:40:35.017Z,48.13
2023-04-22T08:43:01.527Z,48.24
2023-04-22T08:45:29.142Z,48.61
2023-04-22T08:47:56.749Z,48.34
2023-04-22T08:50:23.256Z,50.85
2023-04-22T08:52:49.746Z,48.90
2023-04-22T08:55:16.305Z,50.36
2023-04-22T08:57:44.057Z,49.28
2023-04-22T09:00:10.914Z,48.96
2023-04-22T09:02:38.715Z,47.83
2023-04-22T09:05:06.983Z,46.65
2023-04-22T09:07:33.441Z,46.25
2023-04-22T09:09:59.830Z,48.06
2023-04-22T09:12:26.296Z,46.50
2023-04-22T09:14:52.984Z,46.44
2023-04-22T09:17:30.843Z,45.59
2023-04-22T09:19:59.413Z,45.72
2023-04-22T09:22:27.634Z,45.35
2023-04-22T09:24:54.279Z,45.82
2023-04-22T09:27:24.354Z,45.29
2023-04-22T09:29:52.463Z,45.68
2023-04-22T09:32:19.021Z,45.23
2023-04-22T09:34:55.277Z,45.31
2023-04-22T09:37:30.787Z,44.73
2023-04-22T09:40:04.134Z,44.84
2023-04-22T09:42:30.739Z,45.78
2023-04-22T09:45:00.014Z,44.71
2023-04-22T09:47:35.638Z,46.31
2023-04-22T09:50:04.308Z,44.13
2023-04-22T09:52:32.867Z,44.56
2023-04-22T09:54:59.288Z,45.00
2023-04-22T09:57:25.723Z,44.02
2023-04-22T09:59:52.919Z,44.85
2023-04-22T10:02:28.292Z,44.00
2023-04-22T10:04:55.222Z,44.58
2023-04-22T10:07:21.720Z,45.16
2023-04-22T10:09:48.472Z,44.04
2023-04-22T10:12:16.605Z,44.45
2023-04-22T10:14:43.238Z,44.84
2023-04-22T10:17:10.655Z,44.91
2023-04-22T10:19:39.588Z,45.51
2023-04-22T10:22:07.429Z,45.42
2023-04-22T10:24:37.479Z,44.50
2023-04-22T10:27:06.604Z,45.70
2023-04-22T10:29:39.102Z,45.36
2023-04-22T10:32:18.199Z,46.19
2023-04-22T10:34:47.184Z,45.64
2023-04-22T10:37:17.746Z,43.19
2023-04-22T10:40:07.844Z,44.56
2023-04-22T10:42:34.860Z,45.18
2023-04-22T10:45:02.776Z,43.92
2023-04-22T10:47:35.461Z,44.16
2023-04-22T10:50:26.793Z,45.89
2023-04-22T10:52:58.672Z,44.98
2023-04-22T10:55:26.208Z,44.27
2023-04-22T10:57:53.569Z,44.45
2023-04-22T11:00:33.088Z,45.18
2023-04-22T11:03:05.224Z,44.83
2023-04-22T11:05:32.830Z,43.56
2023-04-22T11:08:05.859Z,43.39
2023-04-22T11:10:44.826Z,43.26
2023-04-22T11:13:16.973Z,42.87
2023-04-22T11:15:46.311Z,42.16
2023-04-22T11:18:29.863Z,41.30
2023-04-22T11:20:56.918Z,40.42
2023-04-22T11:23:27.018Z,41.71
2023-04-22T11:26:01.878Z,41.20
2023-04-22T11:28:29.067Z,41.13
2023-04-22T11:31:07.081Z,41.07
2023-04-22T11:33:34.694Z,40.89
2023-04-22T11:36:01.836Z,40.25
2023-04-22T11:38:28.713Z,38.73
2023-04-22T11:40:57.751Z,38.81
2023-04-22T11:43:24.609Z,39.42
2023-04-22T11:45:51.122Z,39.99
2023-04-22T11:48:17.576Z,40.33
2023-04-22T11:50:44.796Z,38.58
2023-04-22T11:53:18.050Z,38.15
2023-04-22T11:55:46.789Z,38.79
2023-04-22T11:58:23.708Z,38.18
2023-04-22T12:00:52.121Z,38.34
2023-04-22T12:03:20.848Z,39.07
2023-04-22T12:06:01.897Z,39.09
2023-04-22T12:08:44.343Z,39.28
2023-04-22T12:11:12.057Z,38.26
2023-04-22T12:13:38.500Z,39.32
2023-04-22T12:16:15.577Z,38.54
2023-04-22T12:18:49.558Z,38.27
2023-04-22T12:21:19.385Z,38.86
2023-04-22T12:23:53.051Z,40.00
2023-04-22T12:26:23.737Z,39.98
2023-04-22T12:28:52.107Z,40.24
2023-04-22T12:31:18.744Z,39.97
2023-04-22T12:33:46.374Z,40.83
2023-04-22T12:36:13.164Z,39.88
2023-04-22T12:38:39.891Z,40.75
2023-04-22T12:41:06.980Z,41.04
2023-04-22T12:43:36.421Z,40.51
2023-04-22T12:46:04.062Z,41.22
2023-04-22T12:48:31.024Z,40.86
2023-04-22T12:50:58.547Z,41.06
2023-04-22T12:53:27.071Z,41.56
2023-04-22T12:55:53.852Z,42.72
2023-04-22T12:58:20.473Z,40.79
2023-04-22T13:00:46.909Z,41.02
2023-04-22T13:03:13.568Z,41.32
2023-04-22T13:05:40.166Z,41.22
2023-04-22T13:08:08.032Z,41.03
2023-04-22T13:10:35.269Z,41.21
2023-04-22T13:13:17.072Z,40.06
2023-04-22T13:15:53.155Z,40.43
2023-04-22T13:18:21.040Z,39.33
2023-04-22T13:20:47.611Z,39.87
2023-04-22T13:23:14.829Z,40.81
2023-04-22T13:25:41.394Z,40.11
2023-04-22T13:28:07.908Z,39.13
2023-04-22T13:30:34.373Z,38.86
2023-04-22T13:33:00.886Z,39.17
2023-04-22T13:35:27.469Z,38.93
2023-04-22T13:37:53.913Z,38.68
2023-04-22T13:40:21.434Z,38.35
2023-04-22T13:42:48.017Z,40.00
2023-04-22T13:45:14.469Z,38.94
2023-04-22T13:47:41.028Z,38.62
2023-04-22T13:50:09.005Z,38.71
2023-04-22T13:52:35.666Z,38.75
2023-04-22T13:55:05.515Z,38.90
2023-04-22T13:57:31.980Z,38.40
2023-04-22T13:59:58.623Z,37.88
2023-04-22T14:02:25.153Z,37.41
2023-04-22T14:04:51.969Z,38.97
2023-04-22T14:07:18.509Z,38.64
2023-04-22T14:09:44.925Z,38.84
2023-04-22T14:12:11.534Z,38.47
2023-04-22T14:14:38.291Z,37.52
2023-04-22T14:17:04.774Z,38.22
2023-04-22T14:19:31.644Z,38.78
2023-04-22T14:21:58.100Z,38.31
2023-04-22T14:24:25.148Z,37.40
2023-04-22T14:26:52.483Z,39.44
2023-04-22T14:29:19.244Z,38.70
2023-04-22T14:31:45.819Z,38.51
2023-04-22T14:34:12.257Z,37.90
2023-04-22T14:36:38.802Z,38.73
2023-04-22T14:39:05.395Z,40.00
2023-04-22T14:41:31.815Z,38.40
2023-04-22T14:43:58.302Z,38.80
2023-04-22T14:46:24.886Z,39.19
2023-04-22T14:48:51.361Z,39.90
2023-04-22T14:51:17.809Z,39.65
2023-04-22T14:53:44.270Z,39.97
2023-04-22T14:56:11.873Z,39.21
2023-04-22T14:58:38.372Z,39.54
2023-04-22T15:01:07.343Z,39.34
2023-04-22T15:03:35.754Z,39.22
2023-04-22T15:06:02.636Z,39.17
2023-04-22T15:08:29.008Z,39.36
2023-04-22T15:10:55.576Z,40.18
2023-04-22T15:13:22.163Z,39.70
2023-04-22T15:15:48.681Z,38.69
2023-04-22T15:18:15.226Z,39.41
2023-04-22T15:20:41.725Z,39.59
2023-04-22T15:23:08.226Z,38.70
2023-04-22T15:25:35.757Z,37.75
2023-04-22T15:28:02.702Z,37.71
2023-04-22T15:30:29.140Z,38.36
2023-04-22T15:32:55.703Z,38.29
2023-04-22T15:35:23.712Z,39.16
2023-04-22T15:37:50.226Z,38.24
2023-04-22T15:40:16.689Z,39.14
2023-04-22T15:42:43.146Z,38.79
2023-04-22T15:45:09.990Z,38.71
2023-04-22T15:47:37.320Z,38.46
2023-04-22T15:50:08.845Z,39.66
2023-04-22T15:52:37.271Z,40.19
2023-04-22T15:55:04.787Z,39.83
2023-04-22T15:57:34.371Z,38.99
2023-04-22T16:00:11.087Z,39.48
2023-04-22T16:02:39.191Z,39.68
2023-04-22T16:05:05.999Z,40.19
2023-04-22T16:07:32.395Z,40.77
2023-04-22T16:09:59.005Z,40.74
2023-04-22T16:12:25.442Z,41.09
2023-04-22T16:14:51.888Z,40.59
2023-04-22T16:17:18.567Z,41.19
2023-04-22T16:19:45.240Z,41.73
2023-04-22T16:22:11.862Z,41.26
2023-04-22T16:24:38.362Z,42.87
2023-04-22T16:27:04.871Z,42.90
2023-04-22T16:29:31.434Z,42.43
2023-04-22T16:31:57.941Z,43.49
2023-04-22T16:34:24.385Z,43.58
2023-04-22T16:36:50.942Z,44.43
2023-04-22T16:39:19.013Z,44.76
2023-04-22T16:41:45.470Z,44.55
2023-04-22T16:44:11.872Z,44.22
2023-04-22T16:46:38.421Z,44.37
2023-04-22T16:49:04.930Z,45.19
2023-04-22T16:51:31.398Z,45.62
2023-04-22T16:53:57.894Z,45.00
2023-04-22T16:56:24.377Z,44.65
2023-04-22T16:58:50.902Z,46.06
2023-04-22T17:01:17.430Z,46.23
2023-04-22T17:03:44.073Z,46.66
2023-04-22T17:06:10.628Z,45.98
2023-04-22T17:08:37.043Z,46.14
2023-04-22T17:11:03.525Z,46.86
2023-04-22T17:13:29.932Z,46.67
2023-04-22T17:15:56.480Z,48.35
2023-04-22T17:18:22.914Z,49.08
2023-04-22T17:20:49.389Z,50.89
2023-04-22T17:23:16.537Z,51.79
2023-04-22T17:25:43.073Z,52.52
2023-04-22T17:28:11.466Z,53.35
2023-04-22T17:30:38.115Z,54.44
2023-04-22T17:33:04.585Z,55.42
2023-04-22T17:35:31.112Z,55.39
2023-04-22T17:37:57.915Z,56.97
2023-04-22T17:40:24.479Z,57.28
2023-04-22T17:42:51.359Z,57.66
2023-04-22T17:45:17.860Z,57.97
2023-04-22T17:47:44.477Z,58.07
2023-04-22T17:50:11.192Z,58.48
2023-04-22T17:52:40.896Z,59.01
2023-04-22T17:55:07.968Z,59.61
2023-04-22T17:57:34.426Z,59.37
2023-04-22T18:00:00.876Z,60.19
2023-04-22T18:02:27.574Z,60.03
2023-04-22T18:04:54.059Z,59.96
2023-04-22T18:07:20.523Z,60.25
2023-04-22T18:09:47.928Z,60.28
2023-04-22T18:12:14.354Z,61.02
2023-04-22T18:14:41.337Z,60.89
2023-04-22T18:17:07.733Z,61.15
2023-04-22T18:19:34.098Z,60.99
2023-04-22T18:22:00.965Z,62.07
2023-04-22T18:24:28.053Z,62.16
2023-04-22T18:26:54.497Z,61.16
2023-04-22T18:29:21.068Z,62.54
2023-04-22T18:31:47.655Z,61.79
2023-04-22T18:34:15.756Z,61.87
2023-04-22T18:36:42.245Z,63.34
2023-04-22T18:39:09.412Z,62.55
2023-04-22T18:41:37.855Z,62.97
2023-04-22T18:44:04.437Z,64.52
2023-04-22T18:46:30.933Z,63.89
2023-04-22T18:48:57.507Z,65.27
2023-04-22T18:51:24.026Z,64.51
2023-04-22T18:53:50.665Z,64.79
2023-04-22T18:56:17.135Z,65.40
2023-04-22T18:58:44.979Z,64.79
2023-04-22T19:01:11.648Z,64.79
2023-04-22T19:03:39.502Z,66.43
2023-04-22T19:06:06.846Z,65.25
2023-04-22T19:08:33.915Z,65.71
2023-04-22T19:11:00.576Z,65.57
2023-04-22T19:13:29.723Z,65.16
2023-04-22T19:15:57.277Z,65.53
2023-04-22T19:18:23.984Z,66.51
2023-04-22T19:20:50.597Z,64.73
2023-04-22T19:23:17.174Z,66.05
2023-04-22T19:25:43.795Z,66.22
2023-04-22T19:28:10.523Z,66.10
2023-04-22T19:30:36.976Z,65.34
2023-04-22T19:33:03.603Z,65.51
2023-04-22T19:35:30.182Z,66.81
2023-04-22T19:37:56.615Z,65.20
2023-04-22T19:40:23.048Z,66.04
2023-04-22T19:42:49.600Z,65.08
2023-04-22T19:45:16.169Z,65.30
2023-04-22T19:47:42.887Z,66.28
2023-04-22T19:50:09.820Z,64.20
2023-04-22T19:52:37.033Z,65.51
2023-04-22T19:55:08.780Z,65.37
2023-04-22T19:57:38.618Z,64.45
2023-04-22T20:00:07.957Z,65.29
2023-04-22T20:02:35.435Z,65.21
2023-04-22T20:05:05.394Z,63.97
2023-04-22T20:07:35.546Z,64.73
2023-04-22T20:10:07.772Z,64.21
2023-04-22T20:12:34.520Z,65.21
2023-04-22T20:15:02.154Z,64.51
2023-04-22T20:17:28.800Z,65.17
2023-04-22T20:19:55.533Z,64.19
2023-04-22T20:22:26.998Z,65.42
2023-04-22T20:25:05.329Z,65.15
2023-04-22T20:27:32.733Z,65.68
2023-04-22T20:30:00.731Z,65.04
2023-04-22T20:32:31.455Z,64.55
2023-04-22T20:34:58.900Z,65.39
2023-04-22T20:37:26.982Z,64.59
2023-04-22T20:39:54.060Z,64.69
2023-04-22T20:42:21.981Z,64.64
2023-04-22T20:44:48.577Z,64.34
2023-04-22T20:47:16.351Z,63.50
2023-04-22T20:49:43.324Z,64.46
2023-04-22T20:52:11.314Z,63.77
2023-04-22T20:54:39.202Z,65.02
2023-04-22T20:57:07.200Z,63.62
2023-04-22T20:59:34.613Z,64.81
2023-04-22T21:02:01.928Z,64.34
2023-04-22T21:04:29.030Z,63.93
2023-04-22T21:06:56.722Z,64.37
2023-04-22T21:09:27.033Z,64.15
2023-04-22T21:11:54.553Z,64.18
2023-04-22T21:14:24.116Z,64.98
2023-04-22T21:17:00.965Z,64.55
2023-04-22T21:19:32.937Z,64.26
2023-04-22T21:22:05.042Z,64.67
2023-04-22T21:24:35.031Z,64.73
2023-04-22T21:27:02.217Z,64.36
2023-04-22T21:29:29.162Z,63.89
2023-04-22T21:32:08.233Z,63.79
2023-04-22T21:34:36.431Z,64.21
2023-04-22T21:37:03.982Z,64.28
2023-04-22T21:39:30.488Z,64.68
2023-04-22T21:41:58.213Z,63.86
2023-04-22T21:44:24.924Z,64.31
2023-04-22T21:46:51.331Z,63.85
2023-04-22T21:49:18.389Z,64.14
2023-04-22T21:51:44.801Z,64.71
2023-04-22T21:54:11.341Z,65.47
2023-04-22T21:56:37.817Z,65.20
2023-04-22T21:59:04.288Z,65.25
2023-04-22T22:01:30.835Z,66.38
2023-04-22T22:03:57.551Z,65.95
2023-04-22T22:06:25.330Z,66.26
2023-04-22T22:08:53.181Z,66.20
2023-04-22T22:11:30.306Z,66.91
2023-04-22T22:13:57.552Z,66.82
2023-04-22T22:16:24.607Z,66.57
2023-04-22T22:18:51.681Z,66.18
2023-04-22T22:21:18.335Z,64.14
2023-04-22T22:23:44.773Z,65.04
2023-04-22T22:26:11.174Z,64.18
2023-04-22T22:28:37.949Z,64.55
2023-04-22T22:31:04.564Z,64.29
2023-04-22T22:33:31.098Z,64.53
2023-04-22T22:35:57.663Z,65.05
2023-04-22T22:38:24.162Z,64.04
2023-04-22T22:40:50.998Z,64.79
2023-04-22T22:43:17.456Z,64.43
2023-04-22T22:45:44.247Z,64.67
2023-04-22T22:48:10.923Z,65.46
2023-04-22T22:50:37.745Z,65.31
2023-04-22T22:53:04.282Z,65.43
2023-04-22T22:55:30.931Z,65.03
2023-04-22T22:57:57.395Z,64.46
2023-04-22T23:00:23.844Z,65.40
2023-04-22T23:02:50.506Z,65.58
2023-04-22T23:05:17.301Z,65.53
2023-04-22T23:07:43.742Z,65.13
2023-04-22T23:10:10.377Z,64.93
2023-04-22T23:12:36.841Z,65.18
2023-04-22T23:15:03.700Z,63.79
2023-04-22T23:17:30.255Z,63.57
2023-04-22T23:19:57.217Z,62.32
2023-04-22T23:22:24.419Z,62.06
2023-04-22T23:24:51.170Z,62.45
2023-04-22T23:27:18.535Z,63.18
2023-04-22T23:29:45.382Z,61.98
2023-04-22T23:32:14.896Z,62.43
2023-04-22T23:34:44.810Z,62.03
2023-04-22T23:37:14.409Z,61.55
2023-04-22T23:39:41.889Z,61.90
2023-04-22T23:42:08.379Z,62.45
2023-04-22T23:44:34.738Z,62.00
2023-04-22T23:47:01.252Z,61.00
2023-04-22T23:49:28.849Z,60.41
2023-04-22T23:51:55.764Z,61.83
2023-04-22T23:54:22.393Z,60.51
2023-04-22T23:56:49.049Z,61.44
2023-04-22T23:59:15.699Z,61.79
